Latest Coastal Weather Observations for Friendly Beaches

IDT60701

Issued at 6:42 pm EST Thursday 25 May 2017 (issued every 10 minutes, with the page automatically refreshed every 10 minutes)

About coastal observations | Map of coastal stations | Coastal observations for TAS | Marine services | Other Formats
Station Details ID: 092114 Name: FRIENDLY BEACHES Lat: -42.00 Lon: 148.28 Height: 55.0 m
Data from the previous 72 hours. | See also: Recent months at Friendly Beaches
Date/Time
EST
Temp
°C
Wind Pressure Rain since
9am
mm
Weather Cloud Vis
km
Sea
Height
m
Swell
Dir  Spd
kts
Gust
kts
hPa Trend Height
m
Period
s
Dir
25/06:30pm 13.7 WNW 5 9 1010.8 - 0.0 - - - - - - -
25/06:00pm 14.0 NW 6 11 1010.8 - 0.0 - - - - - - -
25/05:30pm 14.3 NW 10 17 1010.3 - 0.0 - - - - - - -
25/05:00pm 14.4 WNW 11 19 1010.3 - 0.0 - - - - - - -
25/04:41pm 15.0 WNW 15 27 1010.3 - 0.0 - - - - - - -
25/04:30pm 15.2 WNW 11 23 1010.4 - 0.0 - - - - - - -
25/04:00pm 15.7 NW 11 21 1010.4 - 0.0 - - - - - - -
25/03:30pm 14.7 NW 5 8 1010.4 - 0.0 - - - - - - -
25/03:00pm 15.1 NW 4 7 1010.6 - 0.0 - - - - - - -
25/02:30pm 15.1 NW 4 9 1010.8 - 0.0 - - - - - - -
25/02:00pm 15.3 WNW 5 9 1011.2 - 0.0 - - - - - - -
25/01:30pm 15.8 WNW 8 17 1011.6 - 0.0 - - - - - - -
25/01:00pm 16.4 NW 3 9 1011.9 - 0.0 - - - - - - -
25/12:30pm 17.5 WNW 7 17 1012.1 - 0.0 - - - - - - -
25/12:00pm 17.4 WNW 4 11 1012.8 - 0.0 - - - - - - -
25/11:30am 17.4 NNW 4 7 1013.2 - 0.0 - - - - - - -
25/11:00am 16.3 NW 2 5 1013.7 - 0.0 - - - - - - -
25/10:30am 15.9 N 2 5 1013.9 - 0.0 - - - - - - -
25/10:00am 14.2 NNE 4 7 1014.0 - 0.0 - - - - - - -
25/09:30am 13.4 N 4 6 1014.1 - 0.0 - - - - - - -
25/09:00am 12.5 NNW 5 9 1014.4 - 0.0 - - - - - - -
25/08:30am 11.2 S 1 3 1014.4 - 0.0 - - - - - - -
25/08:00am 10.4 N 2 3 1014.1 - 0.0 - - - - - - -
25/07:30am 10.1 NNW 5 7 1014.1 - 0.0 - - - - - - -
25/07:00am 10.3 NNW 6 7 1013.9 - 0.0 - - - - - - -
25/06:30am 9.8 NNW 6 9 1013.8 - 0.0 - - - - - - -
25/06:00am 8.8 NNW 5 7 1013.7 - 0.0 - - - - - - -
25/05:30am 8.1 NE 2 3 1013.7 - 0.0 - - - - - - -
25/05:00am 8.3 N 2 3 1013.4 - 0.0 - - - - - - -
25/04:30am 8.6 NW 3 4 1013.3 - 0.0 - - - - - - -
25/04:00am 7.7 NW 4 5 1013.2 - 0.0 - - - - - - -
25/03:30am 8.4 NNW 4 6 1013.0 - 0.0 - - - - - - -
25/03:00am 8.0 NW 4 5 1013.2 - 0.0 - - - - - - -
25/02:30am 8.5 NW 3 4 1013.2 - 0.0 - - - - - - -
25/02:00am 8.6 WNW 4 5 1013.2 - 0.0 - - - - - - -
25/01:30am 8.4 NW 5 7 1013.0 - 0.0 - - - - - - -
25/01:00am 7.9 WNW 4 6 1013.2 - 0.0 - - - - - - -
25/12:30am 8.2 WNW 4 5 1013.3 - 0.0 - - - - - - -
25/12:00am 9.3 WNW 5 9 1013.3 - 0.0 - - - - - - -
 
Date/Time
EST
Temp
°C
Wind Pressure Rain since
9am
mm
Weather Cloud Vis
km
Sea
Height
m
Swell
Dir  Spd
kts
Gust
kts
hPa Trend Height
m
Period
s
Dir
24/11:30pm 9.4 NW 6 11 1013.2 - 0.0 - - - - - - -
24/11:00pm 9.1 NW 5 7 1013.0 - 0.0 - - - - - - -
24/10:30pm 9.4 NW 5 8 1013.0 - 0.0 - - - - - - -
24/10:00pm 9.5 WNW 5 8 1013.1 - 0.0 - - - - - - -
24/09:30pm 9.5 WNW 5 8 1013.1 - 0.0 - - - - - - -
24/09:00pm 8.2 NW 4 6 1013.1 - 0.0 - - - - - - -
24/08:30pm 8.5 W 5 7 1012.8 - 0.0 - - - - - - -
24/08:00pm 8.6 W 4 6 1012.4 - 0.0 - - - - - - -
24/07:30pm 8.8 WNW 3 5 1012.0 - 0.0 - - - - - - -
24/07:00pm 10.1 WNW 4 5 1011.8 - 0.0 - - - - - - -
24/06:30pm 10.1 WNW 3 4 1011.3 - 0.0 - - - - - - -
24/06:00pm 10.6 WSW 4 6 1010.8 - 0.0 - - - - - - -
24/05:30pm 11.7 SW 6 9 1010.0 - 0.0 - - - - - - -
24/05:00pm 12.1 SW 6 8 1009.6 - 0.0 - - - - - - -
24/04:30pm 12.5 WSW 5 7 1009.2 - 0.0 - - - - - - -
24/04:00pm 13.5 SW 7 12 1008.4 - 0.0 - - - - - - -
24/03:30pm 14.2 SW 8 14 1007.9 - 0.0 - - - - - - -
24/03:00pm 14.8 SW 8 16 1007.4 - 0.0 - - - - - - -
24/02:30pm 15.4 WSW 10 18 1007.0 - 0.0 - - - - - - -
24/02:00pm 15.8 WSW 7 12 1006.5 - 0.0 - - - - - - -
24/01:30pm 16.3 SW 6 10 1006.2 - 0.0 - - - - - - -
24/01:00pm 15.9 WSW 7 13 1006.2 - 0.0 - - - - - - -
24/12:30pm 15.9 WSW 6 11 1006.3 - 0.0 - - - - - - -
24/12:00pm 15.3 WSW 6 12 1006.3 - 0.0 - - - - - - -
24/11:30am 13.9 SW 2 4 1006.5 - 0.0 - - - - - - -
24/11:00am 13.2 WSW 2 3 1006.8 - 0.0 - - - - - - -
24/10:30am 13.2 W 3 5 1006.6 - 0.0 - - - - - - -
24/10:00am 13.1 WNW 4 8 1006.1 - 0.0 - - - - - - -
24/09:30am 13.1 WNW 4 7 1006.0 - 0.0 - - - - - - -
24/09:00am 13.7 WNW 3 5 1005.9 - 1.4 - - - - - - -
24/08:30am 13.0 N 5 7 1005.9 - 1.4 - - - - - - -
24/08:00am 12.8 NNW 2 5 1006.3 - 1.4 - - - - - - -
24/07:30am 12.0 NE 3 5 1006.1 - 1.4 - - - - - - -
24/07:00am 13.1 N 5 9 1006.6 - 1.4 - - - - - - -
24/06:30am 12.8 N 6 10 1006.8 - 1.4 - - - - - - -
24/06:00am 12.6 N 6 10 1006.8 - 1.4 - - - - - - -
24/05:30am 12.6 N 8 11 1007.0 - 1.4 - - - - - - -
24/05:00am 13.0 N 7 11 1007.3 - 1.4 - - - - - - -
24/04:30am 12.6 N 7 11 1007.4 - 1.4 - - - - - - -
24/04:00am 11.9 N 6 10 1007.6 - 1.4 - - - - - - -
24/03:30am 10.0 N 2 3 1007.9 - 1.4 - - - - - - -
24/03:00am 10.4 NW 1 2 1008.2 - 1.4 - - - - - - -
24/02:30am 10.3 N 2 3 1008.7 - 1.4 - - - - - - -
24/02:00am 10.5 WNW 1 2 1008.7 - 1.4 - - - - - - -
24/01:30am 10.9 NW 4 5 1009.3 - 1.4 - - - - - - -
24/01:00am 11.4 NNW 3 4 1009.3 - 1.4 - - - - - - -
24/12:30am 11.9 NNW 2 2 1009.5 - 1.4 - - - - - - -
24/12:00am 12.7 NNW 2 4 1009.7 - 1.4 - - - - - - -
 
Date/Time
EST
Temp
°C
Wind Pressure Rain since
9am
mm
Weather Cloud Vis
km
Sea
Height
m
Swell
Dir  Spd
kts
Gust
kts
hPa Trend Height
m
Period
s
Dir
23/11:30pm 13.3 NNW 5 8 1010.0 - 1.4 - - - - - - -
23/11:00pm 13.3 WNW 3 6 1010.3 - 1.4 - - - - - - -
23/10:30pm 14.1 NNW 7 13 1010.6 - 1.4 - - - - - - -
23/10:00pm 13.4 N 5 8 1011.3 - 1.4 - - - - - - -
23/09:30pm 14.4 NNW 7 12 1011.5 - 1.4 - - - - - - -
23/09:00pm 14.3 NNW 9 13 1011.9 - 1.4 - - - - - - -
23/08:30pm 13.8 N 8 13 1011.8 - 1.4 - - - - - - -
23/08:00pm 12.9 N 6 9 1012.6 - 1.4 - - - - - - -
23/07:30pm 12.8 NNW 8 13 1012.4 - 1.4 - - - - - - -
23/07:00pm 13.0 NNW 6 14 1012.6 - 1.2 - - - - - - -
23/06:30pm 13.7 NNW 6 9 1012.7 - 0.6 - - - - - - -
23/06:00pm 15.5 NNW 6 10 1012.7 - 0.2 - - - - - - -
23/05:30pm 15.2 NNW 5 9 1012.1 - 0.2 - - - - - - -
23/05:00pm 14.4 NW 2 4 1012.1 - 0.2 - - - - - - -
23/04:30pm 14.8 NW 2 3 1012.1 - 0.2 - - - - - - -
23/04:00pm 15.3 NE 1 2 1012.0 - 0.2 - - - - - - -
23/03:30pm 15.7 CALM 0 2 1012.1 - 0.2 - - - - - - -
23/03:00pm 15.3 NNE 4 6 1012.2 - 0.2 Recent precip. - - - - - -
23/02:30pm 16.6 WSW 2 5 1012.7 - 0.0 - - - - - - -
23/02:00pm 16.5 NNE 3 6 1012.7 - 0.0 - - - - - - -
23/01:30pm 16.2 NNE 4 6 1013.0 - 0.0 - - - - - - -
23/01:00pm 16.9 NNE 5 6 1013.1 - 0.0 - - - - - - -
23/12:30pm 16.9 NNE 6 8 1013.2 - 0.0 - - - - - - -
23/12:00pm 16.7 NNE 2 6 1013.7 - 0.0 - - - - - - -
23/11:30am 16.1 SSE 2 2 1014.1 - 0.0 - - - - - - -
23/11:00am 16.1 S 3 3 1014.7 - 0.0 - - - - - - -
23/10:30am 16.2 SW 1 2 1015.1 - 0.0 - - - - - - -
23/10:00am 15.5 S 1 4 1015.2 - 0.0 - - - - - - -
23/09:30am 15.5 CALM 0 2 1015.2 - 0.0 - - - - - - -
23/09:00am 15.5 N 4 7 1015.4 - 0.0 - - - - - - -
23/08:30am 15.5 N 6 9 1015.8 - 0.0 - - - - - - -
23/08:00am 15.4 N 7 10 1015.8 - 0.0 - - - - - - -
23/07:30am 15.6 N 7 11 1015.9 - 0.0 - - - - - - -
23/07:00am 15.5 N 8 12 1015.8 - 0.0 - - - - - - -
23/06:30am 15.4 N 7 10 1015.9 - 0.0 - - - - - - -
23/06:00am 15.5 N 8 11 1015.9 - 0.0 - - - - - - -
23/05:30am 15.2 N 8 13 1015.9 - 0.0 - - - - - - -
23/05:00am 15.1 N 8 12 1016.1 - 0.0 - - - - - - -
23/04:30am 15.4 N 8 12 1016.1 - 0.0 - - - - - - -
23/04:00am 14.8 N 7 12 1016.5 - 0.0 - - - - - - -
23/03:30am 15.1 N 9 14 1016.6 - 0.0 - - - - - - -
23/03:00am 15.3 N 10 14 1016.4 - 0.0 - - - - - - -
23/02:30am 15.4 N 10 16 1016.5 - 0.0 - - - - - - -
23/02:00am 14.9 N 6 11 1016.8 - 0.0 - - - - - - -
23/01:30am 14.3 N 4 9 1017.1 - 0.0 - - - - - - -
23/01:00am 13.8 E 1 2 1017.4 - 0.0 - - - - - - -
23/12:30am 13.3 CALM 0 0 1017.7 - 0.0 - - - - - - -
23/12:00am 14.4 N 3 7 1017.9 - 0.0 - - - - - - -
 
Date/Time
EST
Temp
°C
Wind Pressure Rain since
9am
mm
Weather Cloud Vis
km
Sea
Height
m
Swell
Dir  Spd
kts
Gust
kts
hPa Trend Height
m
Period
s
Dir
22/11:30pm 13.2 NNE 2 5 1018.0 - 0.0 - - - - - - -
22/11:00pm 13.1 NW 3 5 1018.1 - 0.0 - - - - - - -
22/10:30pm 12.8 CALM 0 0 1018.4 - 0.0 - - - - - - -
22/10:00pm 13.3 WNW 2 4 1018.4 - 0.0 - - - - - - -
22/09:30pm 13.2 E 1 2 1018.4 - 0.0 - - - - - - -
22/09:00pm 13.3 NNE 4 6 1018.3 - 0.0 - - - - - - -
22/08:30pm 14.1 WNW 4 5 1018.2 - 0.0 - - - - - - -
22/08:00pm 13.6 WNW 4 5 1018.2 - 0.0 - - - - - - -
22/07:30pm 13.9 NW 5 6 1018.2 - 0.0 - - - - - - -
22/07:00pm 14.3 W 5 6 1018.3 - 0.0 - - - - - - -

Other Formats:

Comma delimited format used in spreadsheet applications
http://www.bom.gov.au/fwo/IDT60701/IDT60701.94987.axf

JavaScript Object Notation format (JSON) in row-major order
http://www.bom.gov.au/fwo/IDT60701/IDT60701.94987.json